Time;durP1;ratioP1;P1;durP2;ratioP2;P2;SDS_P1;SDS_P2;PMS_P1;PMS_P2;Temp;Humidity;BMP_temperature;BMP_pressure;BME280_temperature;BME280_humidity;BME280_pressure;Samples;Min_cycle;Max_cycle;Signal;HPM_P1;HPM_P2
2022/03/22 00:00:30;;;;;;;18.80;12.27;;;6.40;99.90;;;;;;4890622;29;20200;-89
2022/03/22 00:02:56;;;;;;;;;;;6.40;99.90;;;;;;4859671;29;20096;-88
2022/03/22 00:05:22;;;;;;;21.63;13.45;;;6.40;99.90;;;;;;4859774;29;20279;-89
2022/03/22 00:07:48;;;;;;;21.63;12.20;;;6.40;99.90;;;;;;4858952;29;20059;-88
2022/03/22 00:10:14;;;;;;;26.37;13.33;;;6.40;99.90;;;;;;4859590;29;20057;-88
2022/03/22 00:12:41;;;;;;;21.80;12.13;;;6.30;99.90;;;;;;4858881;29;20061;-86
2022/03/22 00:15:08;;;;;;;;;;;6.30;99.90;;;;;;4859769;29;20064;-88
2022/03/22 00:17:34;;;;;;;19.08;10.70;;;6.20;99.90;;;;;;4859650;29;19970;-88
2022/03/22 00:20:00;;;;;;;21.23;12.43;;;6.10;99.90;;;;;;4858761;29;20049;-88
2022/03/22 00:22:27;;;;;;;17.75;11.80;;;6.00;99.90;;;;;;4890140;29;20049;-88
2022/03/22 00:24:54;;;;;;;20.80;13.48;;;6.00;99.90;;;;;;4860870;29;20057;-88
2022/03/22 00:27:19;;;;;;;19.17;13.48;;;6.00;99.90;;;;;;4880571;29;20053;-88
2022/03/22 00:29:46;;;;;;;18.03;13.40;;;6.00;99.90;;;;;;4878342;29;20077;-89
2022/03/22 00:32:12;;;;;;;23.13;12.50;;;6.00;99.90;;;;;;4847050;29;20057;-88
2022/03/22 00:34:49;;;;;;;22.37;12.63;;;5.90;99.90;;;;;;4862388;29;20052;-88
2022/03/22 00:37:15;;;;;;;;;;;5.90;99.90;;;;;;4876257;29;20048;-88
2022/03/22 00:39:45;;;;;;;24.30;12.60;;;5.80;99.90;;;;;;4857635;29;19930;-88
2022/03/22 00:42:12;;;;;;;21.35;12.25;;;5.80;99.90;;;;;;4861690;29;20108;-87
2022/03/22 00:44:38;;;;;;;23.42;13.57;;;5.80;99.90;;;;;;4871271;29;20064;-88
2022/03/22 00:47:08;;;;;;;18.33;12.32;;;5.70;99.90;;;;;;4883714;29;20133;-88
2022/03/22 00:49:36;;;;;;;21.02;13.05;;;5.80;99.90;;;;;;4891123;29;20053;-88
2022/03/22 00:52:04;;;;;;;30.02;14.02;;;5.80;99.90;;;;;;4876411;29;20408;-88
2022/03/22 00:54:31;;;;;;;22.20;13.43;;;5.80;99.90;;;;;;4843762;29;20057;-88
2022/03/22 00:56:57;;;;;;;21.73;13.27;;;5.80;99.90;;;;;;4853676;29;20141;-88
2022/03/22 01:02:08;;;;;;;18.30;12.20;;;5.70;99.90;;;;;;4848257;29;20225;-88
2022/03/22 01:04:35;;;;;;;24.13;13.57;;;5.70;99.90;;;;;;4849286;29;20132;-88
2022/03/22 01:07:02;;;;;;;19.67;12.23;;;5.60;99.90;;;;;;4870544;29;20045;-88
2022/03/22 01:09:28;;;;;;;21.23;12.05;;;5.60;99.90;;;;;;4865327;29;20090;-88
2022/03/22 01:11:57;;;;;;;18.92;12.32;;;5.60;99.90;;;;;;4827738;29;20041;-88
2022/03/22 01:14:25;;;;;;;22.67;12.68;;;5.60;99.90;;;;;;4859192;29;20073;-88
2022/03/22 01:16:53;;;;;;;20.45;12.13;;;5.60;99.90;;;;;;4849652;29;20806;-87
2022/03/22 01:19:21;;;;;;;23.67;13.35;;;5.60;99.90;;;;;;4848794;29;20124;-88
2022/03/22 01:21:48;;;;;;;18.83;13.13;;;5.50;99.90;;;;;;4834717;29;20061;-87
2022/03/22 01:24:14;;;;;;;22.38;12.93;;;5.50;99.90;;;;;;4847715;29;20052;-88
2022/03/22 01:26:41;;;;;;;21.57;12.57;;;5.50;99.90;;;;;;4851895;29;20057;-88
2022/03/22 01:29:07;;;;;;;;;;;5.40;99.90;;;;;;4852236;29;20059;-88
2022/03/22 01:31:34;;;;;;;18.77;11.93;;;5.40;99.90;;;;;;4866206;29;19923;-88
2022/03/22 01:34:00;;;;;;;20.27;12.50;;;5.40;99.90;;;;;;4879741;29;20057;-88
2022/03/22 01:36:29;;;;;;;22.23;12.60;;;5.40;99.90;;;;;;4852639;29;20054;-88
2022/03/22 01:38:54;;;;;;;25.25;13.30;;;5.30;99.90;;;;;;4848514;29;20063;-87
2022/03/22 01:41:20;;;;;;;16.60;11.40;;;5.30;99.90;;;;;;4819032;29;20497;-87
2022/03/22 01:43:46;;;;;;;20.47;13.20;;;5.30;99.90;;;;;;4847895;29;20053;-88
2022/03/22 01:46:13;;;;;;;24.67;12.77;;;5.30;99.90;;;;;;4832379;29;20262;-87
2022/03/22 01:48:40;;;;;;;20.13;12.95;;;5.30;99.90;;;;;;4864978;29;20135;-87
2022/03/22 01:51:05;;;;;;;22.80;13.40;;;5.20;99.90;;;;;;4850047;29;20053;-87
2022/03/22 01:53:35;;;;;;;18.90;11.97;;;5.20;99.90;;;;;;4869602;29;20044;-87
2022/03/22 01:56:01;;;;;;;20.70;12.57;;;5.20;99.90;;;;;;4887607;29;20127;-88
2022/03/22 01:58:27;;;;;;;21.50;13.13;;;5.20;99.90;;;;;;4861609;29;20132;-87
2022/03/22 02:05:51;;;;;;;20.53;12.33;;;5.30;99.90;;;;;;4869997;29;20109;-84
2022/03/22 02:06:33;;;;;;;23.00;13.57;;;5.30;99.90;;;;;;4868922;29;20058;-88
2022/03/22 02:08:59;;;;;;;23.58;13.68;;;5.20;99.90;;;;;;4862616;29;20128;-87
2022/03/22 02:11:25;;;;;;;22.23;14.18;;;5.30;99.90;;;;;;4862702;29;20053;-88
2022/03/22 02:13:51;;;;;;;20.33;13.37;;;5.20;99.90;;;;;;4866061;29;20063;-88
2022/03/22 02:16:18;;;;;;;23.90;15.20;;;5.30;99.90;;;;;;4862463;29;20057;-88
2022/03/22 02:18:44;;;;;;;22.17;13.85;;;5.30;99.90;;;;;;4862494;29;20049;-87
2022/03/22 02:21:14;;;;;;;23.23;12.77;;;5.20;99.90;;;;;;4835755;29;20097;-88
2022/03/22 02:23:55;;;;;;;23.15;12.52;;;5.20;99.90;;;;;;4879902;29;20056;-87
2022/03/22 02:26:23;;;;;;;22.48;13.52;;;5.20;99.90;;;;;;4860020;29;20061;-88
2022/03/22 02:28:55;;;;;;;22.70;13.82;;;5.20;99.90;;;;;;4862772;29;20057;-88
2022/03/22 02:31:23;;;;;;;18.40;11.45;;;5.10;99.90;;;;;;4894147;29;20062;-88
2022/03/22 02:33:49;;;;;;;16.60;10.50;;;5.10;99.90;;;;;;4864181;29;20049;-88
2022/03/22 02:36:15;;;;;;;18.67;12.70;;;5.00;99.90;;;;;;4875643;29;20053;-87
2022/03/22 02:38:41;;;;;;;18.53;11.93;;;4.90;99.90;;;;;;4842757;29;20082;-88
2022/03/22 02:41:07;;;;;;;19.95;12.85;;;4.80;99.90;;;;;;4875320;29;20124;-87
2022/03/22 02:43:33;;;;;;;19.20;13.03;;;4.70;99.90;;;;;;4845303;29;20136;-86
2022/03/22 02:45:59;;;;;;;19.97;13.57;;;4.70;99.90;;;;;;4860403;29;20124;-84
2022/03/22 02:48:26;;;;;;;16.70;11.03;;;4.70;99.90;;;;;;4889159;29;20469;-88
2022/03/22 02:50:53;;;;;;;21.75;11.95;;;4.70;99.90;;;;;;4862407;29;20055;-88
2022/03/22 02:53:18;;;;;;;17.70;12.83;;;4.70;99.90;;;;;;4863478;29;20085;-87
2022/03/22 02:55:44;;;;;;;21.45;12.68;;;4.70;99.90;;;;;;4849207;29;20519;-87
2022/03/22 02:58:10;;;;;;;19.90;12.63;;;4.70;99.90;;;;;;4860101;29;20497;-87
2022/03/22 03:00:35;;;;;;;22.00;13.20;;;4.70;99.90;;;;;;4886795;29;20045;-86
2022/03/22 03:03:01;;;;;;;25.80;13.03;;;4.70;99.90;;;;;;4869919;29;20453;-84
2022/03/22 03:05:27;;;;;;;25.67;13.80;;;4.70;99.90;;;;;;4864440;29;20056;-88
2022/03/22 03:07:53;;;;;;;19.27;14.53;;;4.70;99.90;;;;;;4879328;29;20057;-87
2022/03/22 03:10:19;;;;;;;20.35;12.77;;;4.60;99.90;;;;;;4847588;29;20052;-86
2022/03/22 03:12:45;;;;;;;20.80;13.53;;;4.70;99.90;;;;;;4836806;29;20053;-86
2022/03/22 03:15:12;;;;;;;24.70;12.90;;;4.70;99.90;;;;;;4844284;29;20061;-87
2022/03/22 03:17:38;;;;;;;23.83;14.82;;;4.70;99.90;;;;;;4858910;29;20307;-87
2022/03/22 03:20:06;;;;;;;19.23;13.02;;;4.70;99.90;;;;;;4861521;29;20077;-83
2022/03/22 03:22:32;;;;;;;25.85;13.88;;;4.60;99.90;;;;;;4854738;29;20104;-87
2022/03/22 03:24:59;;;;;;;18.53;13.27;;;4.70;99.90;;;;;;4848299;29;20042;-88
2022/03/22 03:27:25;;;;;;;22.55;14.40;;;4.60;99.90;;;;;;4844582;29;20365;-87
2022/03/22 03:29:50;;;;;;;18.95;13.38;;;4.60;99.90;;;;;;4876834;29;20173;-88
2022/03/22 03:32:17;;;;;;;22.80;13.83;;;4.60;99.90;;;;;;4853948;29;20116;-87
2022/03/22 03:34:42;;;;;;;19.67;12.57;;;4.60;99.90;;;;;;4830729;29;20049;-87
2022/03/22 03:37:08;;;;;;;23.50;14.50;;;4.60;99.90;;;;;;4863612;29;20045;-85
2022/03/22 03:39:34;;;;;;;25.27;13.85;;;4.60;99.90;;;;;;4852348;29;20049;-87
2022/03/22 03:42:02;;;;;;;25.25;14.18;;;4.60;99.90;;;;;;4863204;29;20081;-87
2022/03/22 03:47:16;;;;;;;21.63;14.10;;;4.60;99.90;;;;;;4862524;29;20131;-87
2022/03/22 03:49:47;;;;;;;25.55;13.00;;;4.50;99.90;;;;;;4878397;29;20117;-87
2022/03/22 03:52:15;;;;;;;24.60;14.00;;;4.50;99.90;;;;;;4877723;29;20049;-87
2022/03/22 03:54:42;;;;;;;18.90;12.05;;;4.50;99.90;;;;;;4878509;29;20048;-87
2022/03/22 03:57:09;;;;;;;19.80;14.07;;;4.50;99.90;;;;;;4847031;29;20057;-84
2022/03/22 03:59:35;;;;;;;;;;;4.50;99.90;;;;;;4862850;29;20052;-87
2022/03/22 04:02:02;;;;;;;25.33;13.05;;;4.40;99.90;;;;;;4862041;29;20027;-88
2022/03/22 04:04:28;;;;;;;21.33;12.45;;;4.40;99.90;;;;;;4894471;29;20137;-85
2022/03/22 04:06:54;;;;;;;21.63;13.70;;;4.40;99.90;;;;;;4869633;29;20045;-85
2022/03/22 04:09:20;;;;;;;22.58;13.43;;;4.40;99.90;;;;;;4881024;29;20056;-87
2022/03/22 04:11:46;;;;;;;23.83;12.25;;;4.30;99.90;;;;;;4859864;29;20049;-87
2022/03/22 04:14:12;;;;;;;24.67;13.07;;;4.30;99.90;;;;;;4877206;29;20137;-83
2022/03/22 04:16:39;;;;;;;21.92;13.23;;;4.30;99.90;;;;;;4865031;29;20501;-87
2022/03/22 04:19:07;;;;;;;23.73;14.27;;;4.30;99.90;;;;;;4846751;29;20056;-87
2022/03/22 04:21:37;;;;;;;18.95;13.07;;;4.30;99.90;;;;;;4857777;29;20048;-87
2022/03/22 04:24:09;;;;;;;20.80;13.80;;;4.30;99.90;;;;;;4878492;29;20055;-86
2022/03/22 04:26:36;;;;;;;28.55;15.27;;;4.30;99.90;;;;;;4860160;29;20501;-87
2022/03/22 04:34:33;;;;;;;23.77;13.77;;;4.30;99.90;;;;;;4876231;29;20053;-87
2022/03/22 04:37:00;;;;;;;24.23;13.88;;;4.30;99.90;;;;;;4878531;29;20049;-87
2022/03/22 04:39:29;;;;;;;25.88;13.30;;;4.30;99.90;;;;;;4891798;29;20108;-87
2022/03/22 04:41:56;;;;;;;22.95;13.18;;;4.20;99.90;;;;;;4861690;29;20133;-87
2022/03/22 04:44:22;;;;;;;22.50;14.25;;;4.20;99.90;;;;;;4861815;29;20049;-87
2022/03/22 04:46:48;;;;;;;27.20;14.98;;;4.30;99.90;;;;;;4861993;29;20485;-87
2022/03/22 04:49:14;;;;;;;21.75;14.70;;;4.30;99.90;;;;;;4846543;29;20042;-84
2022/03/22 04:57:09;;;;;;;27.38;14.77;;;4.30;99.90;;;;;;4849098;29;20053;-87
2022/03/22 04:59:35;;;;;;;27.38;13.80;;;4.30;99.90;;;;;;4829612;29;20248;-87
2022/03/22 05:02:01;;;;;;;26.75;14.23;;;4.30;99.90;;;;;;4855208;29;20101;-87
2022/03/22 05:04:27;;;;;;;22.77;14.30;;;4.30;99.90;;;;;;4878151;29;20505;-87
2022/03/22 05:06:54;;;;;;;20.37;12.73;;;4.40;99.90;;;;;;4854641;29;20105;-87
2022/03/22 05:09:20;;;;;;;27.00;13.88;;;4.40;99.90;;;;;;4838032;29;20413;-85
2022/03/22 05:11:46;;;;;;;25.03;14.97;;;4.30;99.90;;;;;;4883923;29;20374;-87
2022/03/22 05:14:12;;;;;;;23.40;13.63;;;4.30;99.90;;;;;;4866264;29;20064;-87
2022/03/22 05:16:39;;;;;;;25.67;14.93;;;4.30;99.90;;;;;;4846499;29;20049;-87
2022/03/22 05:19:05;;;;;;;25.02;13.38;;;4.20;99.90;;;;;;4896399;29;20048;-88
2022/03/22 05:21:31;;;;;;;21.63;14.17;;;4.20;99.90;;;;;;4863848;29;20127;-87
2022/03/22 05:23:58;;;;;;;31.63;14.88;;;4.20;99.90;;;;;;4856011;29;20293;-87
2022/03/22 05:26:26;;;;;;;23.00;13.98;;;4.30;99.90;;;;;;4877230;29;20053;-87
2022/03/22 05:28:53;;;;;;;24.77;14.38;;;4.30;99.90;;;;;;4865594;29;20515;-87
2022/03/22 05:31:21;;;;;;;;;;;4.30;99.90;;;;;;4880273;29;20093;-87
2022/03/22 05:33:48;;;;;;;22.60;13.68;;;4.30;99.90;;;;;;4846539;29;19928;-87
2022/03/22 05:36:14;;;;;;;21.38;13.20;;;4.40;99.90;;;;;;4846754;29;20041;-87
2022/03/22 05:38:40;;;;;;;30.02;14.40;;;4.40;99.90;;;;;;4846212;29;20053;-87
2022/03/22 05:41:07;;;;;;;20.27;12.87;;;4.40;99.90;;;;;;4846813;29;20556;-87
2022/03/22 05:43:33;;;;;;;28.13;16.20;;;4.50;99.90;;;;;;4846518;29;20100;-86
2022/03/22 05:45:59;;;;;;;24.63;14.43;;;4.50;99.90;;;;;;4865211;29;20080;-87
2022/03/22 05:48:26;;;;;;;23.67;14.20;;;4.50;99.90;;;;;;4864546;29;20049;-84
2022/03/22 05:50:52;;;;;;;;;;;4.50;99.90;;;;;;4865514;29;20147;-87
2022/03/22 05:53:17;;;;;;;25.70;14.05;;;4.50;99.90;;;;;;4865027;29;20060;-87
2022/03/22 05:55:43;;;;;;;22.87;14.20;;;4.50;99.90;;;;;;4864367;29;20041;-87
2022/03/22 05:58:09;;;;;;;21.07;14.23;;;4.60;99.90;;;;;;4881503;29;20140;-87
2022/03/22 06:00:35;;;;;;;25.02;14.73;;;4.60;99.90;;;;;;4860645;29;20124;-87
2022/03/22 06:03:02;;;;;;;27.70;14.43;;;4.60;99.90;;;;;;4868003;29;20120;-88
2022/03/22 06:05:30;;;;;;;25.98;16.20;;;4.70;99.90;;;;;;4849131;29;20108;-87
2022/03/22 06:07:58;;;;;;;23.25;13.75;;;4.70;99.90;;;;;;4850122;29;20067;-87
2022/03/22 06:10:25;;;;;;;30.50;16.95;;;4.80;99.90;;;;;;4895562;29;20517;-85
2022/03/22 06:12:52;;;;;;;26.95;14.70;;;4.80;99.90;;;;;;4870141;29;20060;-86
2022/03/22 06:15:23;;;;;;;25.38;16.15;;;4.80;99.90;;;;;;4868018;29;20053;-87
2022/03/22 06:17:56;;;;;;;23.83;15.38;;;4.90;99.90;;;;;;4888751;29;20048;-87
2022/03/22 06:20:24;;;;;;;32.92;15.98;;;4.90;99.90;;;;;;4882784;29;20068;-87
2022/03/22 06:22:50;;;;;;;27.20;15.30;;;5.00;99.90;;;;;;4877958;29;20061;-87
2022/03/22 06:25:17;;;;;;;23.88;14.77;;;5.10;99.90;;;;;;4895528;29;20144;-87
2022/03/22 06:27:45;;;;;;;27.05;16.00;;;5.20;99.90;;;;;;4858331;29;20141;-87
2022/03/22 06:30:13;;;;;;;24.20;14.90;;;5.30;99.90;;;;;;4848669;29;20109;-88
2022/03/22 06:32:43;;;;;;;20.27;13.48;;;5.50;99.90;;;;;;4863653;29;20168;-86
2022/03/22 06:35:12;;;;;;;19.75;14.38;;;5.60;99.90;;;;;;4887966;29;20071;-87
2022/03/22 06:37:39;;;;;;;28.88;15.55;;;5.80;99.90;;;;;;4865579;29;20049;-87
2022/03/22 06:40:09;;;;;;;28.33;15.85;;;5.90;99.90;;;;;;4895220;29;20045;-87
2022/03/22 06:42:35;;;;;;;24.75;15.00;;;6.10;99.90;;;;;;4848705;29;20113;-87
2022/03/22 06:45:03;;;;;;;22.92;14.38;;;6.20;99.90;;;;;;4864520;29;20060;-89
2022/03/22 06:47:29;;;;;;;24.23;15.38;;;6.40;99.90;;;;;;4863867;29;20045;-87
2022/03/22 06:49:55;;;;;;;25.50;15.52;;;7.00;99.90;;;;;;4864031;29;20560;-87
2022/03/22 06:52:21;;;;;;;22.93;14.33;;;6.60;99.90;;;;;;4848936;29;20049;-88
2022/03/22 06:54:47;;;;;;;26.10;14.70;;;6.70;99.90;;;;;;4863554;29;20393;-88
2022/03/22 06:57:13;;;;;;;24.07;13.47;;;6.80;99.90;;;;;;4879195;29;20080;-88
2022/03/22 06:59:39;;;;;;;22.73;15.30;;;6.90;99.90;;;;;;4863367;29;20052;-82
2022/03/22 07:02:07;;;;;;;20.40;13.60;;;7.10;99.90;;;;;;4866024;29;20088;-84
2022/03/22 07:04:33;;;;;;;25.80;13.93;;;7.20;99.90;;;;;;4845619;29;20465;-88
2022/03/22 07:06:59;;;;;;;20.77;13.37;;;7.30;99.90;;;;;;4861310;29;20053;-87
2022/03/22 07:09:24;;;;;;;21.77;14.40;;;7.50;99.90;;;;;;4866158;29;20045;-87
2022/03/22 07:11:50;;;;;;;28.03;14.00;;;7.80;99.90;;;;;;4861510;29;20386;-87
2022/03/22 07:14:22;;;;;;;28.98;14.63;;;8.00;99.90;;;;;;4869081;29;20100;-86
2022/03/22 07:16:48;;;;;;;24.65;14.43;;;8.40;99.90;;;;;;4863243;29;20405;-88
2022/03/22 07:19:17;;;;;;;30.07;15.23;;;8.60;99.90;;;;;;4869926;29;20052;-88
2022/03/22 07:21:45;;;;;;;22.80;14.05;;;8.90;99.90;;;;;;4858046;29;20049;-87
2022/03/22 07:24:12;;;;;;;23.65;14.25;;;9.20;99.90;;;;;;4885630;29;20061;-87
2022/03/22 07:26:39;;;;;;;22.85;13.43;;;9.50;99.90;;;;;;4849102;29;20085;-87
2022/03/22 07:29:05;;;;;;;19.17;12.23;;;9.80;99.90;;;;;;4879078;29;20060;-87
2022/03/22 07:31:37;;;;;;;24.27;14.57;;;10.00;99.90;;;;;;4859528;29;20053;-88
2022/03/22 07:34:08;;;;;;;21.02;13.25;;;10.30;99.90;;;;;;4878912;29;20045;-88
2022/03/22 07:36:37;;;;;;;18.17;12.93;;;10.50;99.90;;;;;;4862800;29;20070;-87
2022/03/22 07:39:07;;;;;;;18.63;12.35;;;10.70;99.90;;;;;;4830912;29;20049;-87
2022/03/22 07:41:34;;;;;;;20.27;12.85;;;11.00;99.90;;;;;;4864074;29;20077;-87
2022/03/22 07:44:01;;;;;;;23.55;13.30;;;11.30;99.90;;;;;;4840552;29;20552;-87
2022/03/22 07:46:28;;;;;;;20.23;14.05;;;11.50;99.90;;;;;;4873299;29;20041;-87
2022/03/22 07:48:53;;;;;;;22.70;13.15;;;11.70;99.90;;;;;;4864649;29;20045;-87
2022/03/22 07:54:05;;;;;;;21.05;11.57;;;12.10;99.90;;;;;;4880159;29;20511;-83
2022/03/22 07:56:30;;;;;;;20.33;11.10;;;12.30;99.90;;;;;;4888153;29;20523;-86
2022/03/22 07:58:59;;;;;;;19.60;12.20;;;12.50;99.90;;;;;;4872801;29;20041;-87
2022/03/22 08:01:26;;;;;;;18.42;11.13;;;12.70;99.90;;;;;;4859773;29;20048;-85
2022/03/22 08:03:52;;;;;;;20.63;12.68;;;12.90;99.90;;;;;;4844846;29;20053;-87
2022/03/22 08:06:18;;;;;;;19.53;11.60;;;13.10;99.90;;;;;;4863661;29;20442;-90
2022/03/22 08:08:45;;;;;;;20.97;11.13;;;13.30;99.90;;;;;;4866846;29;20127;-87
2022/03/22 08:11:11;;;;;;;19.90;11.88;;;13.50;99.90;;;;;;4868557;29;20057;-86
2022/03/22 08:13:38;;;;;;;18.48;11.90;;;13.60;99.90;;;;;;4868511;29;20053;-86
2022/03/22 08:16:05;;;;;;;;;;;13.90;99.90;;;;;;4867349;29;20043;-85
2022/03/22 08:18:30;;;;;;;15.77;10.10;;;14.00;99.90;;;;;;4865504;29;19928;-84
2022/03/22 08:20:56;;;;;;;23.00;11.77;;;14.20;99.90;;;;;;4864625;29;20044;-86
2022/03/22 08:23:22;;;;;;;18.87;12.23;;;14.40;99.90;;;;;;4888822;29;20505;-87
2022/03/22 08:25:50;;;;;;;18.90;12.20;;;14.60;99.90;;;;;;4861100;29;20294;-85
2022/03/22 08:28:17;;;;;;;17.38;10.82;;;14.70;99.90;;;;;;4873190;29;20049;-87
2022/03/22 08:30:44;;;;;;;23.08;11.27;;;14.90;99.90;;;;;;4872517;29;20051;-85
2022/03/22 08:33:11;;;;;;;15.68;10.43;;;15.10;99.90;;;;;;4855127;29;20506;-84
2022/03/22 08:35:45;;;;;;;16.38;10.90;;;15.30;99.90;;;;;;4872037;29;20508;-84
2022/03/22 08:38:16;;;;;;;19.63;11.45;;;15.40;99.90;;;;;;4872766;29;20052;-84
2022/03/22 08:40:41;;;;;;;17.13;10.73;;;15.50;99.40;;;;;;4887853;29;20097;-84
2022/03/22 08:43:08;;;;;;;18.73;10.93;;;15.70;98.70;;;;;;4884375;29;20545;-85
2022/03/22 08:45:35;;;;;;;18.90;10.35;;;15.70;97.40;;;;;;4868825;29;21444;-84
2022/03/22 08:48:03;;;;;;;17.27;10.45;;;15.80;97.20;;;;;;4861601;29;20630;-84
2022/03/22 08:50:29;;;;;;;18.17;10.35;;;15.90;96.60;;;;;;4876563;29;20121;-85
2022/03/22 08:52:58;;;;;;;16.20;11.27;;;16.00;95.90;;;;;;4869853;29;20049;-87
2022/03/22 08:55:25;;;;;;;18.70;11.45;;;16.00;95.40;;;;;;4868527;29;20829;-88
2022/03/22 08:57:52;;;;;;;17.52;10.95;;;16.10;94.80;;;;;;4888410;29;20509;-89
2022/03/22 09:00:19;;;;;;;18.80;10.75;;;16.30;93.60;;;;;;4859676;29;20123;-90
2022/03/22 09:02:47;;;;;;;19.95;12.40;;;16.50;92.80;;;;;;4888835;29;20123;-89
2022/03/22 09:08:01;;;;;;;15.77;9.80;;;17.00;91.00;;;;;;4878381;29;20536;-89
2022/03/22 09:10:28;;;;;;;15.63;8.80;;;17.20;90.00;;;;;;4879124;29;20057;-91
2022/03/22 09:12:56;;;;;;;11.38;8.80;;;17.30;86.00;;;;;;4881976;29;20093;-90
2022/03/22 09:15:23;;;;;;;17.17;9.48;;;17.30;84.80;;;;;;4883003;29;20045;-89
2022/03/22 09:17:49;;;;;;;19.42;9.63;;;17.30;83.00;;;;;;4892514;29;20057;-87
2022/03/22 09:20:15;;;;;;;;;;;17.30;82.40;;;;;;4858850;29;20045;-87
2022/03/22 09:22:43;;;;;;;14.52;9.07;;;17.20;80.40;;;;;;4887044;29;19928;-89
2022/03/22 09:25:10;;;;;;;16.67;9.73;;;17.20;82.50;;;;;;4888519;29;20512;-89
2022/03/22 09:27:37;;;;;;;15.70;10.32;;;17.30;81.00;;;;;;4885848;29;20571;-89
2022/03/22 09:30:04;;;;;;;17.15;9.80;;;17.30;80.20;;;;;;4888816;29;20059;-89
2022/03/22 09:32:30;;;;;;;14.30;10.35;;;17.30;79.70;;;;;;4879764;29;20083;-88
2022/03/22 09:34:58;;;;;;;16.45;9.68;;;17.40;79.20;;;;;;4860969;29;20133;-89
2022/03/22 09:37:24;;;;;;;14.40;9.50;;;17.40;79.20;;;;;;4835348;29;20485;-89
2022/03/22 09:39:50;;;;;;;14.43;9.55;;;17.50;78.80;;;;;;4853372;29;20079;-89
2022/03/22 09:42:16;;;;;;;13.52;10.13;;;17.60;78.70;;;;;;4866959;29;20072;-89
2022/03/22 09:44:48;;;;;;;17.60;10.02;;;17.90;77.80;;;;;;4844980;29;20075;-87
2022/03/22 09:47:15;;;;;;;15.68;9.75;;;18.10;75.90;;;;;;4893218;29;20036;-88
2022/03/22 09:49:42;;;;;;;17.77;9.82;;;18.40;75.70;;;;;;4868481;29;20572;-90
2022/03/22 09:52:12;;;;;;;15.05;9.77;;;18.50;74.70;;;;;;4854123;29;20057;-86
2022/03/22 09:54:39;;;;;;;16.75;10.40;;;18.70;74.10;;;;;;4878064;29;20041;-86
2022/03/22 09:57:05;;;;;;;20.17;11.23;;;18.80;73.30;;;;;;4863698;29;20519;-89
2022/03/22 09:59:35;;;;;;;15.27;9.73;;;18.80;73.20;;;;;;4858511;29;20040;-90
2022/03/22 10:02:05;;;;;;;15.40;10.13;;;18.80;71.80;;;;;;4871503;29;20106;-90
2022/03/22 10:04:42;;;;;;;17.13;9.15;;;18.80;72.30;;;;;;4890041;29;20060;-86
2022/03/22 10:07:20;;;;;;;16.67;9.55;;;19.00;70.20;;;;;;4875004;29;20128;-88
2022/03/22 10:10:00;;;;;;;13.65;9.40;;;19.10;69.70;;;;;;4871127;29;20088;-90
2022/03/22 10:12:37;;;;;;;14.40;9.75;;;19.30;69.30;;;;;;4848935;29;20465;-90
2022/03/22 10:15:15;;;;;;;13.40;8.65;;;19.50;67.80;;;;;;4891063;29;20116;-87
2022/03/22 10:17:46;;;;;;;14.32;8.95;;;19.50;67.90;;;;;;4885403;29;20052;-91
2022/03/22 10:20:25;;;;;;;17.77;9.10;;;19.50;68.20;;;;;;4861528;29;20041;-91
2022/03/22 10:22:59;;;;;;;15.57;9.32;;;19.50;66.30;;;;;;4855688;29;20119;-90
2022/03/22 10:25:26;;;;;;;17.55;11.68;;;19.70;66.40;;;;;;4865568;29;20096;-91
2022/03/22 10:27:55;;;;;;;14.27;9.13;;;19.90;66.50;;;;;;4876875;29;20105;-88
2022/03/22 10:30:21;;;;;;;15.68;9.73;;;20.00;65.70;;;;;;4892855;29;20068;-89
2022/03/22 10:32:51;;;;;;;16.38;9.43;;;20.20;65.30;;;;;;4867054;29;20379;-90
2022/03/22 10:35:22;;;;;;;15.68;10.93;;;20.20;65.20;;;;;;4892676;29;20519;-89
2022/03/22 10:37:49;;;;;;;17.38;9.00;;;20.40;65.00;;;;;;4877156;29;20492;-92
2022/03/22 10:40:22;;;;;;;15.88;8.18;;;20.40;64.60;;;;;;4852609;29;20053;-90
2022/03/22 10:42:50;;;;;;;16.67;10.27;;;20.50;63.10;;;;;;4856530;29;20052;-93
2022/03/22 10:45:16;;;;;;;16.30;9.73;;;20.50;63.10;;;;;;4884147;29;20501;-93
2022/03/22 10:47:43;;;;;;;16.33;9.98;;;20.60;63.70;;;;;;4876324;29;20113;-93
2022/03/22 10:50:08;;;;;;;;;;;20.40;63.80;;;;;;4863405;29;20052;-93
2022/03/22 10:52:40;;;;;;;13.82;9.38;;;20.30;61.80;;;;;;4869565;29;19963;-85
2022/03/22 10:55:06;;;;;;;17.95;10.43;;;20.30;64.60;;;;;;4875506;29;20057;-87
2022/03/22 10:57:37;;;;;;;16.30;10.23;;;20.30;64.50;;;;;;4863974;29;20068;-88
2022/03/22 11:00:08;;;;;;;13.82;8.90;;;20.40;64.40;;;;;;4864154;29;20038;-87
2022/03/22 11:02:37;;;;;;;18.45;10.25;;;20.40;63.10;;;;;;4877385;29;20078;-90
2022/03/22 11:05:04;;;;;;;17.75;10.15;;;20.50;62.90;;;;;;4864561;29;20049;-90
2022/03/22 11:07:38;;;;;;;19.40;9.63;;;20.60;63.00;;;;;;4887108;29;20056;-88
2022/03/22 11:10:04;;;;;;;15.07;9.57;;;20.70;61.40;;;;;;4865895;29;20108;-87
2022/03/22 11:12:30;;;;;;;13.27;9.13;;;20.70;62.70;;;;;;4879083;29;20049;-87
2022/03/22 11:14:58;;;;;;;18.52;10.25;;;20.60;62.50;;;;;;4851738;29;20048;-88
2022/03/22 11:17:28;;;;;;;15.60;9.65;;;20.50;62.30;;;;;;4854686;29;20056;-87
2022/03/22 11:19:55;;;;;;;19.23;10.73;;;20.60;61.80;;;;;;4876704;29;20044;-86
2022/03/22 11:22:22;;;;;;;22.23;11.70;;;20.60;62.40;;;;;;4875150;29;20052;-86
2022/03/22 11:24:48;;;;;;;14.18;9.38;;;20.70;62.80;;;;;;4890188;29;20041;-87
2022/03/22 11:27:14;;;;;;;10.48;8.32;;;20.80;62.40;;;;;;4871620;29;20477;-88
2022/03/22 11:29:41;;;;;;;17.40;10.82;;;20.90;61.90;;;;;;4863913;29;20059;-94
2022/03/22 11:34:57;;;;;;;14.10;8.65;;;20.90;62.00;;;;;;4865741;29;20049;-92
2022/03/22 11:37:34;;;;;;;16.65;9.13;;;21.10;60.80;;;;;;4866467;29;20492;-91
2022/03/22 11:42:57;;;;;;;14.88;9.27;;;21.30;59.70;;;;;;4872782;29;20514;-89
2022/03/22 11:45:25;;;;;;;17.15;9.32;;;21.30;58.60;;;;;;4888632;29;20049;-89
2022/03/22 11:47:54;;;;;;;14.38;9.50;;;21.30;59.30;;;;;;4880077;29;20563;-88
2022/03/22 11:50:22;;;;;;;15.43;9.65;;;21.40;59.30;;;;;;4860785;29;20089;-87
2022/03/22 11:52:54;;;;;;;12.68;8.77;;;21.50;58.80;;;;;;4867184;29;20553;-90
2022/03/22 11:55:25;;;;;;;23.23;10.57;;;21.50;58.20;;;;;;4887780;29;20135;-93
2022/03/22 11:57:58;;;;;;;20.48;10.25;;;21.50;57.90;;;;;;4869234;29;20522;-84
2022/03/22 12:00:45;;;;;;;15.68;10.27;;;21.60;57.70;;;;;;4882621;29;20056;-86
2022/03/22 12:03:13;;;;;;;18.38;10.07;;;21.70;56.60;;;;;;4864418;29;20056;-87
2022/03/22 12:05:39;;;;;;;21.08;11.80;;;21.70;57.60;;;;;;4868796;29;20560;-89
2022/03/22 12:08:10;;;;;;;14.25;8.88;;;21.80;57.20;;;;;;4853256;29;20049;-86
2022/03/22 12:10:36;;;;;;;15.40;10.23;;;21.90;56.50;;;;;;4873978;29;20080;-84
2022/03/22 12:13:03;;;;;;;12.82;8.45;;;22.10;56.60;;;;;;4865089;29;20052;-86
2022/03/22 12:15:29;;;;;;;;;;;22.20;56.60;;;;;;4868788;29;20374;-90
2022/03/22 12:17:56;;;;;;;15.88;9.43;;;22.40;55.10;;;;;;4859117;29;19978;-88
2022/03/22 12:20:23;;;;;;;21.92;10.38;;;22.50;55.70;;;;;;4862268;29;20063;-88
2022/03/22 12:22:56;;;;;;;17.45;11.40;;;22.60;55.30;;;;;;4891421;29;20107;-88
2022/03/22 12:25:24;;;;;;;19.10;10.00;;;22.70;54.80;;;;;;4871322;29;20040;-88
2022/03/22 12:27:51;;;;;;;16.65;9.45;;;22.90;54.60;;;;;;4891671;29;20420;-87
2022/03/22 12:30:17;;;;;;;;;;;23.00;54.60;;;;;;4867446;29;20092;-88
2022/03/22 12:32:43;;;;;;;13.43;8.27;;;23.00;52.00;;;;;;4867270;29;19927;-87
2022/03/22 12:35:11;;;;;;;15.02;9.13;;;23.20;54.50;;;;;;4857629;29;20075;-89
2022/03/22 12:37:38;;;;;;;19.83;9.02;;;23.10;53.40;;;;;;4865935;29;20051;-89
2022/03/22 12:40:05;;;;;;;21.08;9.52;;;23.20;54.30;;;;;;4861616;29;20067;-89
2022/03/22 12:42:31;;;;;;;15.43;10.13;;;23.20;53.90;;;;;;4877424;29;20045;-90
2022/03/22 12:44:57;;;;;;;20.40;11.05;;;23.20;53.60;;;;;;4844135;29;20373;-89
2022/03/22 12:47:24;;;;;;;16.67;9.73;;;23.30;53.40;;;;;;4885738;29;20091;-89
2022/03/22 12:49:49;;;;;;;16.48;9.82;;;23.50;53.50;;;;;;4868809;29;20491;-89
2022/03/22 12:52:15;;;;;;;17.92;9.05;;;23.60;53.10;;;;;;4877299;29;20077;-91
2022/03/22 12:54:42;;;;;;;16.60;8.70;;;23.70;52.90;;;;;;4859472;29;20046;-86
2022/03/22 12:57:16;;;;;;;12.73;7.38;;;23.70;52.60;;;;;;4869864;29;20053;-85
2022/03/22 12:59:42;;;;;;;12.27;7.70;;;23.70;52.20;;;;;;4875685;29;20049;-86
2022/03/22 13:02:09;;;;;;;17.05;8.63;;;23.60;52.30;;;;;;4876429;29;20049;-86
2022/03/22 13:04:46;;;;;;;16.50;8.18;;;23.70;52.40;;;;;;4869081;29;20064;-86
2022/03/22 13:07:13;;;;;;;22.80;9.45;;;23.70;51.50;;;;;;4863662;29;20057;-86
2022/03/22 13:12:23;;;;;;;14.27;7.90;;;24.00;52.30;;;;;;4860515;29;20049;-86